Time;durP1;ratioP1;P1;durP2;ratioP2;P2;SDS_P1;SDS_P2;PMS_P1;PMS_P2;Temp;Humidity;BMP_temperature;BMP_pressure;BME280_temperature;BME280_humidity;BME280_pressure;Samples;Min_cycle;Max_cycle;Signal;HPM_P1;HPM_P2
2023/03/26 00:00:04;;;;;;;14.70;2.70;;;;;;;;;;5050406;28;20090;-61
2023/03/26 00:02:30;;;;;;;15.95;3.17;;;;;;;;;;5067096;28;20063;-61
2023/03/26 00:04:56;;;;;;;13.23;2.78;;;;;;;;;;5068058;28;20037;-61
2023/03/26 00:07:23;;;;;;;15.77;3.05;;;;;;;;;;5068682;28;20109;-61
2023/03/26 00:09:49;;;;;;;14.07;3.15;;;;;;;;;;5069834;28;20048;-61
2023/03/26 00:12:15;;;;;;;12.10;2.70;;;;;;;;;;5052023;28;20391;-62
2023/03/26 00:14:41;;;;;;;11.50;2.45;;;;;;;;;;5069164;28;20052;-62
2023/03/26 00:17:07;;;;;;;12.15;2.40;;;;;;;;;;5056484;28;20037;-62
2023/03/26 00:19:33;;;;;;;15.52;2.97;;;;;;;;;;5046399;28;20335;-61
2023/03/26 00:21:59;;;;;;;16.08;2.88;;;;;;;;;;5049848;28;20064;-61
2023/03/26 00:24:28;;;;;;;11.75;2.90;;;;;;;;;;5050642;28;20044;-61
2023/03/26 00:26:54;;;;;;;14.45;2.53;;;;;;;;;;5050611;28;20056;-61
2023/03/26 00:29:26;;;;;;;18.67;2.97;;;;;;;;;;5050249;28;20045;-61
2023/03/26 00:31:53;;;;;;;16.02;2.80;;;;;;;;;;5050695;28;20053;-61
2023/03/26 00:34:19;;;;;;;13.68;3.08;;;;;;;;;;5050530;28;20052;-61
2023/03/26 00:36:45;;;;;;;14.82;3.08;;;;;;;;;;5050080;28;20092;-61
2023/03/26 00:39:12;;;;;;;16.90;3.15;;;;;;;;;;5050195;28;20067;-61
2023/03/26 00:41:41;;;;;;;12.70;2.80;;;;;;;;;;5050409;28;20048;-61
2023/03/26 00:44:08;;;;;;;10.30;2.25;;;;;;;;;;5049677;28;20037;-61
2023/03/26 00:46:35;;;;;;;15.23;2.95;;;;;;;;;;5050157;28;20040;-61
2023/03/26 00:49:02;;;;;;;12.43;2.60;;;;;;;;;;5049917;28;20049;-61
2023/03/26 00:51:29;;;;;;;14.35;2.65;;;;;;;;;;5049327;28;20111;-61
2023/03/26 00:53:55;;;;;;;13.77;2.70;;;;;;;;;;5050029;28;20044;-62
2023/03/26 00:56:21;;;;;;;16.90;2.83;;;;;;;;;;5049833;28;20076;-61
2023/03/26 00:58:48;;;;;;;8.95;2.03;;;;;;;;;;5049445;28;20079;-61
2023/03/26 01:01:17;;;;;;;13.68;2.97;;;;;;;;;;5049811;28;20043;-61
2023/03/26 01:03:45;;;;;;;10.18;2.28;;;;;;;;;;5049802;28;20576;-61
2023/03/26 01:06:12;;;;;;;16.92;3.30;;;;;;;;;;5049335;28;20061;-61
2023/03/26 01:08:46;;;;;;;17.75;2.40;;;;;;;;;;5050319;28;20037;-61
2023/03/26 01:11:15;;;;;;;14.65;2.95;;;;;;;;;;5049847;28;20044;-61
2023/03/26 01:13:46;;;;;;;12.32;3.42;;;;;;;;;;5049274;28;20045;-61
2023/03/26 01:16:35;;;;;;;15.60;2.78;;;;;;;;;;5049575;28;20151;-61
2023/03/26 01:19:02;;;;;;;11.95;2.30;;;;;;;;;;5049650;28;20561;-61
2023/03/26 01:21:28;;;;;;;12.85;2.80;;;;;;;;;;5049101;28;20127;-61
2023/03/26 01:24:01;;;;;;;10.50;3.40;;;;;;;;;;5049112;28;20059;-61
2023/03/26 01:26:46;;;;;;;13.25;2.40;;;;;;;;;;5049598;28;20045;-61
2023/03/26 01:29:19;;;;;;;13.88;2.75;;;;;;;;;;5049211;28;20064;-61
2023/03/26 01:31:52;;;;;;;11.77;2.65;;;;;;;;;;5049422;28;20080;-61
2023/03/26 01:34:18;;;;;;;10.35;2.72;;;;;;;;;;5048707;28;20568;-61
2023/03/26 01:36:52;;;;;;;13.32;2.70;;;;;;;;;;5049191;28;20069;-61
2023/03/26 01:39:27;;;;;;;9.23;2.55;;;;;;;;;;5049169;28;20048;-61
2023/03/26 01:42:03;;;;;;;16.48;2.95;;;;;;;;;;5048745;28;20052;-61
2023/03/26 01:44:38;;;;;;;13.52;2.95;;;;;;;;;;5049301;28;20036;-62
2023/03/26 01:47:05;;;;;;;15.50;2.80;;;;;;;;;;5049483;28;20498;-62
2023/03/26 01:49:32;;;;;;;18.67;2.90;;;;;;;;;;5048629;28;20049;-61
2023/03/26 01:51:58;;;;;;;14.45;2.95;;;;;;;;;;5031553;28;20577;-61
2023/03/26 01:54:29;;;;;;;14.18;2.38;;;;;;;;;;5049242;28;20291;-61
2023/03/26 01:57:14;;;;;;;15.25;2.72;;;;;;;;;;5048488;28;20052;-61
2023/03/26 01:59:43;;;;;;;12.77;2.55;;;;;;;;;;5049135;28;20041;-61
2023/03/26 02:02:13;;;;;;;9.57;2.30;;;;;;;;;;5049177;28;20498;-61
2023/03/26 02:04:58;;;;;;;18.15;3.20;;;;;;;;;;5030339;28;20041;-61
2023/03/26 02:07:44;;;;;;;16.05;4.10;;;;;;;;;;5049221;28;20041;-61
2023/03/26 02:10:14;;;;;;;12.60;3.22;;;;;;;;;;5049047;28;20079;-61
2023/03/26 02:12:41;;;;;;;14.15;2.55;;;;;;;;;;5048572;28;20053;-61
2023/03/26 02:15:07;;;;;;;17.23;3.15;;;;;;;;;;5049082;28;20091;-61
2023/03/26 02:17:33;;;;;;;13.15;2.78;;;;;;;;;;5048513;28;20131;-61
2023/03/26 02:20:09;;;;;;;16.15;2.65;;;;;;;;;;5048174;28;20048;-61
2023/03/26 02:22:39;;;;;;;8.02;2.33;;;;;;;;;;5048837;28;20415;-61
2023/03/26 02:25:07;;;;;;;11.82;3.00;;;;;;;;;;5048817;28;20049;-61
2023/03/26 02:27:33;;;;;;;13.82;2.60;;;;;;;;;;5048400;28;20098;-61
2023/03/26 02:29:59;;;;;;;11.32;2.45;;;;;;;;;;5052213;28;20049;-61
2023/03/26 02:32:25;;;;;;;14.05;2.70;;;;;;;;;;5053042;28;20044;-61
2023/03/26 02:34:51;;;;;;;11.85;2.90;;;;;;;;;;5052124;28;20076;-61
2023/03/26 02:37:17;;;;;;;13.38;2.33;;;;;;;;;;5052685;28;20048;-61
2023/03/26 02:39:44;;;;;;;12.95;2.60;;;;;;;;;;5052387;28;20056;-61
2023/03/26 02:42:10;;;;;;;10.43;3.63;;;;;;;;;;5052250;28;20032;-61
2023/03/26 02:44:38;;;;;;;10.43;2.90;;;;;;;;;;5052488;28;20377;-61
2023/03/26 02:47:05;;;;;;;12.25;2.60;;;;;;;;;;5052602;28;20138;-61
2023/03/26 02:49:30;;;;;;;12.48;2.30;;;;;;;;;;5051767;28;20048;-61
2023/03/26 02:51:57;;;;;;;13.27;2.90;;;;;;;;;;5052309;28;20037;-61
2023/03/26 02:54:23;;;;;;;11.43;2.47;;;;;;;;;;5052440;28;20063;-61
2023/03/26 02:56:49;;;;;;;10.95;2.58;;;;;;;;;;5051791;28;20517;-61
2023/03/26 02:59:15;;;;;;;15.35;3.03;;;;;;;;;;5052619;28;20432;-61
2023/03/26 03:01:41;;;;;;;9.43;2.38;;;;;;;;;;5052032;28;20105;-61
2023/03/26 03:04:11;;;;;;;11.45;2.67;;;;;;;;;;5051492;28;20037;-61
2023/03/26 03:06:37;;;;;;;10.52;2.80;;;;;;;;;;5052297;28;20041;-61
2023/03/26 03:09:04;;;;;;;12.15;3.42;;;;;;;;;;5050272;28;20045;-61
2023/03/26 03:11:30;;;;;;;12.13;2.70;;;;;;;;;;5051550;28;20052;-61
2023/03/26 03:13:56;;;;;;;13.88;2.67;;;;;;;;;;5052108;28;20143;-62
2023/03/26 03:16:22;;;;;;;15.35;3.05;;;;;;;;;;5051933;28;20407;-62
2023/03/26 03:18:53;;;;;;;10.82;2.88;;;;;;;;;;5051604;28;20069;-62
2023/03/26 03:21:19;;;;;;;11.68;2.95;;;;;;;;;;5051880;28;20041;-61
2023/03/26 03:23:45;;;;;;;12.85;2.88;;;;;;;;;;5051555;28;20128;-61
2023/03/26 03:26:13;;;;;;;10.65;3.10;;;;;;;;;;5051149;28;20091;-61
2023/03/26 03:28:39;;;;;;;10.43;3.10;;;;;;;;;;5051904;28;20041;-61
2023/03/26 03:31:05;;;;;;;12.48;3.17;;;;;;;;;;5051546;28;20502;-61
2023/03/26 03:33:31;;;;;;;11.40;2.47;;;;;;;;;;5050774;28;20083;-61
2023/03/26 03:35:58;;;;;;;15.00;2.72;;;;;;;;;;5051519;28;20052;-61
2023/03/26 03:38:24;;;;;;;11.70;3.00;;;;;;;;;;5051563;28;20052;-61
2023/03/26 03:40:50;;;;;;;11.38;3.47;;;;;;;;;;5049458;28;20330;-61
2023/03/26 03:43:16;;;;;;;12.98;2.65;;;;;;;;;;5051470;28;20032;-61
2023/03/26 03:45:42;;;;;;;11.57;3.53;;;;;;;;;;5051305;28;20068;-61
2023/03/26 03:48:08;;;;;;;8.15;3.13;;;;;;;;;;5050659;28;20447;-61
2023/03/26 03:50:36;;;;;;;9.15;2.50;;;;;;;;;;5050899;28;20045;-61
2023/03/26 03:53:04;;;;;;;10.20;2.55;;;;;;;;;;5051215;28;20048;-61
2023/03/26 03:55:30;;;;;;;7.80;2.70;;;;;;;;;;5050641;28;20051;-61
2023/03/26 03:57:57;;;;;;;8.30;2.80;;;;;;;;;;5051196;28;20037;-61
2023/03/26 04:00:23;;;;;;;9.40;2.40;;;;;;;;;;5051127;28;20113;-61
2023/03/26 04:02:49;;;;;;;6.78;2.22;;;;;;;;;;5050365;28;20041;-61
2023/03/26 04:05:15;;;;;;;13.45;2.95;;;;;;;;;;5051260;28;20033;-61
2023/03/26 04:07:41;;;;;;;10.18;2.70;;;;;;;;;;5051093;28;20133;-61
2023/03/26 04:10:08;;;;;;;11.75;2.78;;;;;;;;;;5050284;28;20045;-61
2023/03/26 04:12:34;;;;;;;15.55;3.25;;;;;;;;;;5050978;28;20449;-61
2023/03/26 04:15:00;;;;;;;10.48;2.75;;;;;;;;;;5050929;28;20060;-61
2023/03/26 04:17:29;;;;;;;11.32;3.10;;;;;;;;;;5050275;28;20503;-61
2023/03/26 04:19:55;;;;;;;10.98;2.92;;;;;;;;;;5032625;28;20467;-61
2023/03/26 04:22:21;;;;;;;11.18;2.83;;;;;;;;;;5050580;28;20085;-61
2023/03/26 04:24:48;;;;;;;14.50;3.28;;;;;;;;;;5050078;28;20137;-61
2023/03/26 04:27:19;;;;;;;10.80;2.80;;;;;;;;;;5050705;28;20048;-61
2023/03/26 04:29:48;;;;;;;8.63;2.83;;;;;;;;;;5050595;28;20044;-61
2023/03/26 04:32:33;;;;;;;11.60;3.38;;;;;;;;;;5049784;28;20041;-61
2023/03/26 04:35:02;;;;;;;7.72;2.95;;;;;;;;;;5050543;28;20051;-61
2023/03/26 04:37:31;;;;;;;10.50;3.17;;;;;;;;;;5050330;28;20103;-61
2023/03/26 04:39:58;;;;;;;11.95;3.45;;;;;;;;;;5049630;28;20318;-61
2023/03/26 04:42:24;;;;;;;10.77;3.60;;;;;;;;;;5050384;28;20127;-61
2023/03/26 04:44:51;;;;;;;10.10;3.10;;;;;;;;;;5050613;28;20144;-61
2023/03/26 04:47:20;;;;;;;8.43;3.30;;;;;;;;;;5049552;28;20052;-61
2023/03/26 04:49:47;;;;;;;14.65;3.17;;;;;;;;;;5050302;28;20131;-61
2023/03/26 04:52:13;;;;;;;12.27;3.20;;;;;;;;;;5049867;28;20076;-61
2023/03/26 04:54:39;;;;;;;12.82;3.72;;;;;;;;;;5049361;28;20437;-61
2023/03/26 04:57:10;;;;;;;16.75;3.38;;;;;;;;;;5050093;28;20055;-61
2023/03/26 04:59:36;;;;;;;8.85;3.22;;;;;;;;;;5050158;28;20475;-61
2023/03/26 05:02:04;;;;;;;9.60;2.97;;;;;;;;;;5049279;28;20043;-61
2023/03/26 05:04:30;;;;;;;8.52;3.28;;;;;;;;;;5049672;28;20033;-61
2023/03/26 05:06:57;;;;;;;10.52;3.78;;;;;;;;;;5050252;28;20049;-61
2023/03/26 05:09:23;;;;;;;13.43;3.40;;;;;;;;;;5048933;28;20048;-61
2023/03/26 05:11:50;;;;;;;9.05;2.97;;;;;;;;;;5050210;28;20044;-61
2023/03/26 05:14:16;;;;;;;12.75;4.57;;;;;;;;;;5050147;28;20041;-61
2023/03/26 05:16:43;;;;;;;13.18;3.55;;;;;;;;;;5048981;28;20048;-62
2023/03/26 05:19:09;;;;;;;13.63;3.92;;;;;;;;;;5049545;28;20075;-62
2023/03/26 05:21:35;;;;;;;11.07;3.63;;;;;;;;;;5049164;28;20041;-61
2023/03/26 05:24:01;;;;;;;14.88;4.05;;;;;;;;;;5048804;28;20056;-61
2023/03/26 05:26:28;;;;;;;13.05;3.65;;;;;;;;;;5049598;28;20045;-61
2023/03/26 05:28:54;;;;;;;13.70;4.30;;;;;;;;;;5049507;28;20044;-61
2023/03/26 05:31:20;;;;;;;17.17;4.25;;;;;;;;;;5048873;28;20498;-61
2023/03/26 05:33:47;;;;;;;18.23;3.92;;;;;;;;;;5049151;28;20052;-61
2023/03/26 05:36:14;;;;;;;12.80;3.80;;;;;;;;;;5049037;28;20045;-61
2023/03/26 05:38:40;;;;;;;18.23;4.50;;;;;;;;;;5048666;28;20044;-61
2023/03/26 05:41:07;;;;;;;13.82;3.78;;;;;;;;;;5049216;28;20040;-61
2023/03/26 05:43:33;;;;;;;12.70;3.80;;;;;;;;;;5049207;28;20066;-61
2023/03/26 05:45:59;;;;;;;12.75;4.20;;;;;;;;;;5048526;28;20037;-61
2023/03/26 05:48:25;;;;;;;14.20;3.88;;;;;;;;;;5049174;28;20096;-61
2023/03/26 05:50:53;;;;;;;13.00;3.78;;;;;;;;;;5049046;28;20074;-61
2023/03/26 05:53:20;;;;;;;9.55;3.35;;;;;;;;;;5048711;28;20407;-61
2023/03/26 05:55:49;;;;;;;14.45;3.55;;;;;;;;;;5048955;28;20052;-61
2023/03/26 05:58:15;;;;;;;10.82;3.15;;;;;;;;;;5049173;28;20041;-61
2023/03/26 06:00:47;;;;;;;9.43;2.65;;;;;;;;;;5048452;28;20061;-61
2023/03/26 06:03:13;;;;;;;11.68;2.92;;;;;;;;;;5048188;28;20126;-61
2023/03/26 06:05:39;;;;;;;13.40;3.08;;;;;;;;;;5049211;28;20041;-61
2023/03/26 06:08:06;;;;;;;13.35;3.60;;;;;;;;;;5048442;28;20491;-61
2023/03/26 06:10:32;;;;;;;11.45;3.30;;;;;;;;;;5048899;28;20479;-61
2023/03/26 06:12:58;;;;;;;10.93;2.97;;;;;;;;;;5049020;28;20074;-61
2023/03/26 06:15:24;;;;;;;10.95;3.40;;;;;;;;;;5048432;28;20045;-61
2023/03/26 06:17:50;;;;;;;9.80;4.13;;;;;;;;;;5048497;28;20045;-61
2023/03/26 06:20:16;;;;;;;9.77;3.80;;;;;;;;;;5048835;28;20056;-61
2023/03/26 06:22:42;;;;;;;14.63;3.72;;;;;;;;;;5048520;28;20111;-61
2023/03/26 06:25:08;;;;;;;17.15;3.28;;;;;;;;;;5048080;28;20095;-61
2023/03/26 06:27:34;;;;;;;7.05;3.08;;;;;;;;;;5048875;28;20499;-61
2023/03/26 06:30:00;;;;;;;11.43;3.00;;;;;;;;;;5048840;28;20080;-61
2023/03/26 06:32:26;;;;;;;11.00;3.60;;;;;;;;;;5048195;28;20080;-61
2023/03/26 06:34:52;;;;;;;13.52;3.42;;;;;;;;;;5048848;28;20474;-61
2023/03/26 06:37:18;;;;;;;18.10;4.15;;;;;;;;;;5048730;28;20116;-61
2023/03/26 06:39:44;;;;;;;10.18;3.50;;;;;;;;;;5048026;28;20041;-61
2023/03/26 06:42:10;;;;;;;10.75;4.10;;;;;;;;;;5048528;28;20047;-61
2023/03/26 06:44:36;;;;;;;20.55;5.60;;;;;;;;;;5048756;28;20043;-61
2023/03/26 06:47:02;;;;;;;12.52;4.13;;;;;;;;;;5048128;28;20041;-61
2023/03/26 06:49:28;;;;;;;15.50;4.70;;;;;;;;;;5048564;28;20049;-61
2023/03/26 06:51:54;;;;;;;16.05;4.40;;;;;;;;;;5048569;28;20091;-61
2023/03/26 06:54:20;;;;;;;15.23;3.78;;;;;;;;;;5048179;28;20041;-61
2023/03/26 06:56:46;;;;;;;18.63;4.45;;;;;;;;;;5048506;28;20048;-61
2023/03/26 06:59:12;;;;;;;14.45;3.80;;;;;;;;;;5048404;28;20487;-61
2023/03/26 07:01:38;;;;;;;14.90;3.75;;;;;;;;;;5047745;28;20118;-61
2023/03/26 07:04:04;;;;;;;18.35;4.20;;;;;;;;;;5048310;28;20049;-61
2023/03/26 07:06:31;;;;;;;17.58;3.78;;;;;;;;;;5048496;28;20053;-61
2023/03/26 07:08:57;;;;;;;14.30;3.63;;;;;;;;;;5047867;28;20049;-61
2023/03/26 07:11:25;;;;;;;17.52;4.03;;;;;;;;;;5048367;28;20067;-61
2023/03/26 07:13:51;;;;;;;25.00;4.28;;;;;;;;;;5048388;28;20573;-61
2023/03/26 07:16:17;;;;;;;16.98;3.17;;;;;;;;;;5051149;28;20048;-61
2023/03/26 07:18:43;;;;;;;17.95;3.40;;;;;;;;;;5051851;28;20040;-61
2023/03/26 07:21:09;;;;;;;25.83;3.03;;;;;;;;;;5051808;28;20501;-61
2023/03/26 07:23:35;;;;;;;24.85;3.70;;;;;;;;;;5050724;28;20056;-61
2023/03/26 07:26:31;;;;;;;22.52;3.67;;;;;;;;;;5051654;28;20052;-61
2023/03/26 07:29:04;;;;;;;21.35;3.28;;;;;;;;;;5046831;28;20055;-61
2023/03/26 07:31:37;;;;;;;21.52;3.38;;;;;;;;;;5051031;28;20555;-61
2023/03/26 07:34:21;;;;;;;21.73;3.22;;;;;;;;;;5051726;28;20415;-61
2023/03/26 07:36:51;;;;;;;23.85;3.85;;;;;;;;;;5051268;28;20071;-61
2023/03/26 07:39:31;;;;;;;19.25;2.90;;;;;;;;;;5051143;28;20036;-61
2023/03/26 07:42:16;;;;;;;13.30;2.70;;;;;;;;;;5051545;28;20388;-61
2023/03/26 07:44:45;;;;;;;15.23;2.95;;;;;;;;;;5050766;28;20337;-61
2023/03/26 07:47:21;;;;;;;20.40;3.25;;;;;;;;;;5051283;28;20139;-61
2023/03/26 07:49:47;;;;;;;17.17;3.10;;;;;;;;;;5051305;28;20102;-61
2023/03/26 07:52:13;;;;;;;20.75;2.80;;;;;;;;;;5050690;28;20355;-61
2023/03/26 07:54:39;;;;;;;19.00;2.90;;;;;;;;;;5051366;28;20548;-61
2023/03/26 07:57:08;;;;;;;21.38;2.85;;;;;;;;;;5051268;28;20129;-61
2023/03/26 07:59:39;;;;;;;21.30;3.72;;;;;;;;;;5050350;28;20044;-61
2023/03/26 08:02:30;;;;;;;20.42;3.10;;;;;;;;;;5050918;28;20041;-61
2023/03/26 08:05:09;;;;;;;22.73;3.22;;;;;;;;;;5051081;28;20449;-61
2023/03/26 08:07:36;;;;;;;18.70;2.67;;;;;;;;;;5050427;28;20124;-61
2023/03/26 08:10:02;;;;;;;23.85;3.80;;;;;;;;;;5050915;28;20048;-61
2023/03/26 08:12:28;;;;;;;15.70;2.70;;;;;;;;;;5050694;28;20051;-61
2023/03/26 08:15:03;;;;;;;14.55;2.50;;;;;;;;;;5050194;28;20480;-61
2023/03/26 08:17:42;;;;;;;21.38;2.90;;;;;;;;;;5050516;28;20586;-61
2023/03/26 08:20:09;;;;;;;15.68;2.63;;;;;;;;;;5050676;28;20048;-62
2023/03/26 08:22:39;;;;;;;19.85;2.58;;;;;;;;;;5049912;28;20495;-62
2023/03/26 08:25:23;;;;;;;19.67;2.83;;;;;;;;;;5050738;28;20498;-62
2023/03/26 08:27:51;;;;;;;14.55;2.63;;;;;;;;;;5050047;28;20049;-62
2023/03/26 08:30:22;;;;;;;20.55;3.00;;;;;;;;;;5050055;28;20041;-62
2023/03/26 08:32:55;;;;;;;20.90;2.55;;;;;;;;;;5050570;28;20055;-62
2023/03/26 08:35:21;;;;;;;19.20;2.85;;;;;;;;;;5050600;28;20396;-62
2023/03/26 08:37:48;;;;;;;22.40;3.15;;;;;;;;;;5049921;28;20048;-62
2023/03/26 08:40:19;;;;;;;16.08;3.10;;;;;;;;;;5050248;28;20044;-62
2023/03/26 08:42:54;;;;;;;16.30;2.72;;;;;;;;;;5050390;28;20445;-62
2023/03/26 08:45:35;;;;;;;19.25;2.70;;;;;;;;;;5049729;28;20041;-62
2023/03/26 08:48:20;;;;;;;28.05;2.53;;;;;;;;;;5049922;28;20113;-62
2023/03/26 08:50:54;;;;;;;15.38;2.83;;;;;;;;;;5049766;28;20045;-62
2023/03/26 08:53:20;;;;;;;14.52;2.67;;;;;;;;;;5049950;28;20049;-62
2023/03/26 08:55:46;;;;;;;14.13;3.15;;;;;;;;;;5050099;28;20143;-62
2023/03/26 08:58:15;;;;;;;18.23;2.58;;;;;;;;;;5049471;28;20114;-62
2023/03/26 09:01:00;;;;;;;17.35;3.03;;;;;;;;;;5049898;28;20045;-62
2023/03/26 09:03:29;;;;;;;20.67;3.38;;;;;;;;;;5049874;28;20048;-62
2023/03/26 09:06:15;;;;;;;15.82;2.72;;;;;;;;;;5049520;28;20293;-62
2023/03/26 09:08:50;;;;;;;22.35;2.90;;;;;;;;;;5049726;28;20495;-62
2023/03/26 09:11:16;;;;;;;13.45;2.58;;;;;;;;;;5049621;28;20040;-62
2023/03/26 09:13:51;;;;;;;21.52;2.97;;;;;;;;;;5049083;28;20055;-62
2023/03/26 09:16:31;;;;;;;16.02;3.10;;;;;;;;;;5049637;28;20045;-62
2023/03/26 09:19:25;;;;;;;23.88;3.00;;;;;;;;;;5049801;28;20115;-62
2023/03/26 09:22:09;;;;;;;15.50;2.67;;;;;;;;;;5048945;28;20041;-62
2023/03/26 09:24:54;;;;;;;22.65;3.22;;;;;;;;;;5049554;28;20134;-62
2023/03/26 09:27:26;;;;;;;21.15;2.67;;;;;;;;;;5029911;28;20052;-62
2023/03/26 09:29:55;;;;;;;16.63;2.65;;;;;;;;;;5028906;28;20049;-62
2023/03/26 09:32:27;;;;;;;16.42;2.72;;;;;;;;;;5029534;28;20252;-62
2023/03/26 09:34:56;;;;;;;17.08;3.40;;;;;;;;;;5029437;28;20037;-62
2023/03/26 09:37:34;;;;;;;9.77;2.40;;;;;;;;;;5028663;28;20614;-62
2023/03/26 09:40:00;;;;;;;17.90;2.80;;;;;;;;;;5029184;28;20037;-62
2023/03/26 09:42:41;;;;;;;11.35;1.85;;;;;;;;;;5029648;28;20060;-62
2023/03/26 09:45:16;;;;;;;15.27;3.25;;;;;;;;;;5029389;28;20037;-62
2023/03/26 09:47:53;;;;;;;15.88;2.40;;;;;;;;;;5034871;28;20123;-62
2023/03/26 09:50:22;;;;;;;12.93;2.70;;;;;;;;;;5048385;28;20120;-62
2023/03/26 09:52:49;;;;;;;16.38;2.95;;;;;;;;;;5049094;28;20052;-62
2023/03/26 09:55:15;;;;;;;25.00;2.72;;;;;;;;;;5049255;28;20430;-62
2023/03/26 09:58:14;;;;;;;13.30;2.20;;;;;;;;;;5048514;28;20071;-62
2023/03/26 10:00:49;;;;;;;20.33;2.20;;;;;;;;;;5036587;28;20057;-62
2023/03/26 10:03:39;;;;;;;16.42;2.33;;;;;;;;;;5048988;28;20063;-62
2023/03/26 10:06:21;;;;;;;14.32;2.85;;;;;;;;;;5048188;28;20048;-62
2023/03/26 10:08:56;;;;;;;15.20;2.67;;;;;;;;;;5049192;28;20426;-62
2023/03/26 10:11:37;;;;;;;15.38;2.75;;;;;;;;;;5048912;28;20512;-62
2023/03/26 10:14:29;;;;;;;15.43;2.15;;;;;;;;;;5048332;28;20048;-62
2023/03/26 10:17:01;;;;;;;13.57;2.35;;;;;;;;;;5047691;28;20446;-62
2023/03/26 10:19:46;;;;;;;11.35;2.25;;;;;;;;;;5048610;28;20052;-62
2023/03/26 10:22:34;;;;;;;19.70;2.65;;;;;;;;;;5048616;28;20096;-62
2023/03/26 10:25:12;;;;;;;12.10;2.70;;;;;;;;;;5048906;28;20055;-62
2023/03/26 10:27:54;;;;;;;20.10;2.20;;;;;;;;;;5048217;28;20041;-62
2023/03/26 10:30:20;;;;;;;12.82;2.35;;;;;;;;;;5048807;28;20045;-62
2023/03/26 10:33:05;;;;;;;12.55;2.08;;;;;;;;;;5048960;28;20433;-62
2023/03/26 10:35:44;;;;;;;12.05;2.28;;;;;;;;;;5048074;28;20049;-62
2023/03/26 10:38:13;;;;;;;10.02;2.20;;;;;;;;;;5048770;28;20045;-62
2023/03/26 10:40:59;;;;;;;15.65;2.78;;;;;;;;;;5048628;28;20037;-62
2023/03/26 10:43:43;;;;;;;15.80;2.33;;;;;;;;;;5047692;28;20045;-62
2023/03/26 10:46:09;;;;;;;17.20;2.45;;;;;;;;;;5048674;28;20061;-62
2023/03/26 10:48:52;;;;;;;23.25;2.50;;;;;;;;;;5048863;28;20562;-62
2023/03/26 10:51:37;;;;;;;17.55;2.60;;;;;;;;;;5051661;28;20525;-62
2023/03/26 10:54:10;;;;;;;19.33;2.97;;;;;;;;;;5052750;28;20040;-62
2023/03/26 10:56:43;;;;;;;17.02;2.60;;;;;;;;;;5033785;28;20045;-62
2023/03/26 10:59:11;;;;;;;16.88;1.90;;;;;;;;;;5052051;28;20041;-62
2023/03/26 11:01:40;;;;;;;12.93;2.13;;;;;;;;;;5052217;28;20116;-62
2023/03/26 11:04:25;;;;;;;10.00;2.05;;;;;;;;;;5051389;28;20045;-62
2023/03/26 11:07:01;;;;;;;14.48;2.20;;;;;;;;;;5052262;28;20492;-62
2023/03/26 11:09:38;;;;;;;18.38;2.50;;;;;;;;;;5052057;28;20115;-62
2023/03/26 11:12:04;;;;;;;16.70;2.50;;;;;;;;;;5051637;28;20036;-62
2023/03/26 11:14:46;;;;;;;11.07;2.10;;;;;;;;;;5052185;28;20041;-62
2023/03/26 11:17:31;;;;;;;7.23;1.97;;;;;;;;;;5051863;28;20049;-62
2023/03/26 11:20:09;;;;;;;15.63;2.97;;;;;;;;;;5051562;28;20033;-62
2023/03/26 11:22:38;;;;;;;14.00;2.28;;;;;;;;;;5051574;28;20415;-62
2023/03/26 11:25:11;;;;;;;23.20;2.58;;;;;;;;;;5051605;28;20075;-62
2023/03/26 11:27:56;;;;;;;16.65;3.28;;;;;;;;;;5051089;28;20048;-62
2023/03/26 11:30:46;;;;;;;13.43;2.72;;;;;;;;;;5051775;28;20132;-62
2023/03/26 11:33:18;;;;;;;15.30;2.30;;;;;;;;;;5051669;28;20056;-62
2023/03/26 11:35:48;;;;;;;11.95;2.10;;;;;;;;;;5051093;28;20053;-62
2023/03/26 11:38:23;;;;;;;11.00;2.53;;;;;;;;;;5051778;28;20405;-62
2023/03/26 11:40:54;;;;;;;12.75;2.13;;;;;;;;;;5051555;28;20432;-62
2023/03/26 11:43:23;;;;;;;15.15;2.70;;;;;;;;;;5051221;28;20070;-62
2023/03/26 11:45:50;;;;;;;10.57;2.38;;;;;;;;;;5051670;28;20063;-62
2023/03/26 11:48:16;;;;;;;14.68;2.67;;;;;;;;;;5051574;28;20399;-62
2023/03/26 11:50:45;;;;;;;15.38;2.70;;;;;;;;;;5050953;28;20044;-62
2023/03/26 11:53:16;;;;;;;12.55;2.50;;;;;;;;;;5051229;28;20041;-62
2023/03/26 11:55:59;;;;;;;16.48;2.65;;;;;;;;;;5051015;28;20056;-62
2023/03/26 11:58:30;;;;;;;12.48;2.40;;;;;;;;;;5051358;28;20064;-62
2023/03/26 12:00:56;;;;;;;8.32;1.92;;;;;;;;;;5049573;28;20029;-62
2023/03/26 12:03:22;;;;;;;18.83;2.97;;;;;;;;;;5050397;28;20095;-62
2023/03/26 12:05:52;;;;;;;16.02;2.70;;;;;;;;;;5051221;28;20029;-62
2023/03/26 12:08:26;;;;;;;10.25;2.22;;;;;;;;;;5051197;28;20041;-62
2023/03/26 12:11:00;;;;;;;14.52;2.90;;;;;;;;;;5050444;28;20044;-62
2023/03/26 12:13:29;;;;;;;20.58;2.97;;;;;;;;;;5051124;28;20081;-62
2023/03/26 12:16:03;;;;;;;12.80;2.58;;;;;;;;;;5050890;28;20128;-62
2023/03/26 12:18:29;;;;;;;15.02;2.65;;;;;;;;;;5050321;28;20051;-62
2023/03/26 12:21:03;;;;;;;14.77;2.30;;;;;;;;;;5050620;28;20045;-62
2023/03/26 12:23:43;;;;;;;15.18;2.72;;;;;;;;;;5050408;28;20052;-62
2023/03/26 12:26:19;;;;;;;17.58;2.40;;;;;;;;;;5049547;28;20077;-62
2023/03/26 12:28:47;;;;;;;11.95;2.25;;;;;;;;;;5050397;28;20041;-62
2023/03/26 12:31:17;;;;;;;19.42;2.63;;;;;;;;;;5050446;28;20040;-62
2023/03/26 12:33:43;;;;;;;11.48;2.60;;;;;;;;;;5049965;28;20071;-62
2023/03/26 12:36:39;;;;;;;15.23;2.33;;;;;;;;;;5050263;28;20081;-62
2023/03/26 12:39:23;;;;;;;16.38;2.80;;;;;;;;;;5047018;28;20568;-62
2023/03/26 12:41:57;;;;;;;11.40;2.60;;;;;;;;;;5049890;28;20057;-62
2023/03/26 12:44:36;;;;;;;15.18;2.60;;;;;;;;;;5050492;28;20491;-62
2023/03/26 12:47:18;;;;;;;9.88;2.22;;;;;;;;;;5050367;28;20041;-62
2023/03/26 12:49:45;;;;;;;14.93;2.80;;;;;;;;;;5029684;28;20098;-62
2023/03/26 12:52:40;;;;;;;10.52;2.53;;;;;;;;;;5030196;28;20076;-62
2023/03/26 12:55:25;;;;;;;11.32;2.17;;;;;;;;;;4958373;28;20580;-62
2023/03/26 12:57:59;;;;;;;13.70;2.60;;;;;;;;;;5029871;28;20048;-62
2023/03/26 13:00:55;;;;;;;9.32;2.08;;;;;;;;;;5012273;28;20037;-62
2023/03/26 13:03:44;;;;;;;10.30;2.00;;;;;;;;;;5012227;28;20340;-62
2023/03/26 13:06:26;;;;;;;13.85;2.22;;;;;;;;;;5029988;28;20495;-62
2023/03/26 13:09:07;;;;;;;10.98;2.13;;;;;;;;;;5030002;28;20076;-62
2023/03/26 13:11:42;;;;;;;10.27;2.30;;;;;;;;;;5029390;28;20046;-62
2023/03/26 13:14:31;;;;;;;10.57;2.17;;;;;;;;;;5029738;28;20042;-62
2023/03/26 13:16:57;;;;;;;12.00;2.47;;;;;;;;;;4992593;28;20080;-62
2023/03/26 13:19:36;;;;;;;14.57;2.42;;;;;;;;;;5029190;28;20521;-62
2023/03/26 13:22:05;;;;;;;14.40;2.05;;;;;;;;;;5029831;28;20057;-62
2023/03/26 13:24:37;;;;;;;9.88;2.00;;;;;;;;;;5034074;28;20047;-62
2023/03/26 13:27:13;;;;;;;11.73;2.15;;;;;;;;;;5049420;28;20045;-62
2023/03/26 13:29:58;;;;;;;13.68;2.20;;;;;;;;;;5049443;28;20045;-62
2023/03/26 13:32:33;;;;;;;18.70;2.13;;;;;;;;;;5049272;28;20036;-62
2023/03/26 13:35:05;;;;;;;11.00;2.10;;;;;;;;;;5049545;28;20041;-62
2023/03/26 13:37:41;;;;;;;11.35;2.05;;;;;;;;;;5049296;28;20128;-62
2023/03/26 13:40:13;;;;;;;11.65;2.13;;;;;;;;;;5048821;28;20033;-62
2023/03/26 13:42:57;;;;;;;16.48;2.70;;;;;;;;;;5049406;28;20510;-62
2023/03/26 13:45:23;;;;;;;15.30;2.10;;;;;;;;;;5049248;28;20041;-62
2023/03/26 13:47:50;;;;;;;8.60;1.85;;;;;;;;;;5048486;28;20411;-62
2023/03/26 13:50:30;;;;;;;7.10;1.85;;;;;;;;;;5049147;28;20048;-62
2023/03/26 13:53:01;;;;;;;13.32;2.22;;;;;;;;;;5049165;28;20044;-62
2023/03/26 13:55:34;;;;;;;12.53;2.30;;;;;;;;;;5048429;28;20056;-62
2023/03/26 13:58:16;;;;;;;10.43;1.73;;;;;;;;;;5048985;28;20786;-62
2023/03/26 14:00:46;;;;;;;9.88;1.85;;;;;;;;;;5049043;28;20175;-62
2023/03/26 14:03:17;;;;;;;9.70;1.90;;;;;;;;;;5048319;28;20124;-62
2023/03/26 14:05:45;;;;;;;10.00;1.80;;;;;;;;;;5049184;28;20029;-62
2023/03/26 14:08:19;;;;;;;15.38;2.03;;;;;;;;;;5048931;28;20049;-62
2023/03/26 14:10:52;;;;;;;13.13;2.10;;;;;;;;;;5048788;28;20175;-62
2023/03/26 14:13:44;;;;;;;12.88;2.25;;;;;;;;;;5048755;28;20045;-62
2023/03/26 14:16:13;;;;;;;11.80;1.60;;;;;;;;;;5047520;28;20056;-62
2023/03/26 14:18:57;;;;;;;11.68;1.80;;;;;;;;;;5048207;28;20043;-62
2023/03/26 14:21:35;;;;;;;12.07;1.98;;;;;;;;;;5048808;28;20037;-62
2023/03/26 14:24:20;;;;;;;7.88;1.70;;;;;;;;;;5048189;28;20049;-62
2023/03/26 14:26:46;;;;;;;13.85;1.75;;;;;;;;;;5052575;28;20040;-62
2023/03/26 14:29:12;;;;;;;10.00;1.80;;;;;;;;;;5052757;28;20045;-62
2023/03/26 14:31:48;;;;;;;11.35;1.70;;;;;;;;;;5052386;28;20124;-62
2023/03/26 14:34:22;;;;;;;13.50;2.30;;;;;;;;;;5052834;28;20128;-62
2023/03/26 14:37:04;;;;;;;9.23;1.65;;;;;;;;;;5053130;28;20077;-62
2023/03/26 14:39:46;;;;;;;9.25;1.65;;;;;;;;;;5052081;28;20507;-62
2023/03/26 14:42:17;;;;;;;12.05;1.73;;;;;;;;;;5052721;28;20070;-62
2023/03/26 14:45:06;;;;;;;11.13;1.75;;;;;;;;;;5052621;28;20048;-62
2023/03/26 14:47:36;;;;;;;6.85;1.60;;;;;;;;;;5052000;28;20049;-62
2023/03/26 14:50:21;;;;;;;14.38;2.13;;;;;;;;;;5052376;28;20072;-62
2023/03/26 14:52:48;;;;;;;6.90;1.50;;;;;;;;;;5052528;28;20106;-62
2023/03/26 14:55:34;;;;;;;10.70;1.98;;;;;;;;;;5034055;28;20072;-62